Time;durP1;ratioP1;P1;durP2;ratioP2;P2;SDS_P1;SDS_P2;PMS_P1;PMS_P2;Temp;Humidity;BMP_temperature;BMP_pressure;BME280_temperature;BME280_humidity;BME280_pressure;Samples;Min_cycle;Max_cycle;Signal;HPM_P1;HPM_P2
2022/09/06 00:01:35;;;;;;;2.20;1.00;;;;;;;;;;5002981;28;20034;-81
2022/09/06 00:04:01;;;;;;;4.63;1.42;;;;;;;;;;4971472;28;20041;-79
2022/09/06 00:06:26;;;;;;;3.40;1.30;;;;;;;;;;4957997;28;20070;-80
2022/09/06 00:08:52;;;;;;;5.53;1.20;;;;;;;;;;4957647;28;20047;-81
2022/09/06 00:11:17;;;;;;;2.83;1.15;;;;;;;;;;4988399;28;20035;-81
2022/09/06 00:13:43;;;;;;;3.83;0.90;;;;;;;;;;4947648;28;20125;-81
2022/09/06 00:16:12;;;;;;;3.20;1.23;;;;;;;;;;4989380;28;20526;-82
2022/09/06 00:18:37;;;;;;;3.97;1.20;;;;;;;;;;4973726;28;20030;-81
2022/09/06 00:21:04;;;;;;;4.05;1.38;;;;;;;;;;4989197;28;20030;-81
2022/09/06 00:23:29;;;;;;;3.03;1.17;;;;;;;;;;4945386;28;20542;-82
2022/09/06 00:26:03;;;;;;;4.43;1.13;;;;;;;;;;4962783;28;20051;-82
2022/09/06 00:28:28;;;;;;;2.78;1.00;;;;;;;;;;5002275;28;20062;-81
2022/09/06 00:30:53;;;;;;;4.40;1.17;;;;;;;;;;4989089;28;20058;-82
2022/09/06 00:33:19;;;;;;;2.53;1.00;;;;;;;;;;4995156;28;20039;-80
2022/09/06 00:35:46;;;;;;;3.55;1.05;;;;;;;;;;4956748;28;20134;-80
2022/09/06 00:38:11;;;;;;;2.55;1.00;;;;;;;;;;4989449;28;20118;-81
2022/09/06 00:40:37;;;;;;;3.13;0.90;;;;;;;;;;4973857;28;20117;-80
2022/09/06 00:43:02;;;;;;;2.72;1.10;;;;;;;;;;4957292;28;20031;-82
2022/09/06 00:45:28;;;;;;;3.05;1.10;;;;;;;;;;4988497;28;20145;-82
2022/09/06 00:47:54;;;;;;;3.50;1.10;;;;;;;;;;5007526;28;20092;-80
2022/09/06 00:50:19;;;;;;;2.92;0.90;;;;;;;;;;4988750;28;20496;-81
2022/09/06 00:52:47;;;;;;;5.55;1.00;;;;;;;;;;4990795;28;20141;-82
2022/09/06 00:55:13;;;;;;;2.45;0.90;;;;;;;;;;4939960;28;20055;-82
2022/09/06 00:57:39;;;;;;;2.38;0.98;;;;;;;;;;4953628;28;20435;-81
2022/09/06 01:00:07;;;;;;;2.83;1.08;;;;;;;;;;4982191;28;20138;-82
2022/09/06 01:02:32;;;;;;;4.80;1.00;;;;;;;;;;4991291;28;20038;-80
2022/09/06 01:04:58;;;;;;;3.03;0.70;;;;;;;;;;4989395;28;20524;-81
2022/09/06 01:07:57;;;;;;;2.47;0.77;;;;;;;;;;4954413;28;20066;-81
2022/09/06 01:10:40;;;;;;;4.65;1.00;;;;;;;;;;4969299;28;20568;-80
2022/09/06 01:13:25;;;;;;;4.25;1.20;;;;;;;;;;4972521;28;20383;-81
2022/09/06 01:16:08;;;;;;;2.30;0.80;;;;;;;;;;5003506;28;20427;-80
2022/09/06 01:19:13;;;;;;;3.17;0.70;;;;;;;;;;4968403;28;20058;-81
2022/09/06 01:22:00;;;;;;;2.03;0.80;;;;;;;;;;4978832;28;20085;-81
2022/09/06 01:24:40;;;;;;;4.18;0.98;;;;;;;;;;5013661;28;20037;-82
2022/09/06 01:27:30;;;;;;;4.50;1.10;;;;;;;;;;5005597;28;20038;-80
2022/09/06 01:30:10;;;;;;;2.33;0.75;;;;;;;;;;4973888;28;20749;-80
2022/09/06 01:33:09;;;;;;;2.95;0.80;;;;;;;;;;4976252;28;20034;-83
2022/09/06 01:35:38;;;;;;;1.77;0.70;;;;;;;;;;4984460;28;20061;-83
2022/09/06 01:38:04;;;;;;;3.08;0.70;;;;;;;;;;4998094;28;20067;-82
2022/09/06 01:40:29;;;;;;;2.47;1.05;;;;;;;;;;4985776;28;20425;-80
2022/09/06 01:42:55;;;;;;;2.50;0.77;;;;;;;;;;4992429;28;20039;-82
2022/09/06 01:45:44;;;;;;;7.10;1.00;;;;;;;;;;4985797;28;20039;-80
2022/09/06 01:48:16;;;;;;;5.38;0.98;;;;;;;;;;4976085;28;20471;-81
2022/09/06 01:50:56;;;;;;;2.95;0.60;;;;;;;;;;4954044;28;20554;-81
2022/09/06 01:53:46;;;;;;;2.28;0.80;;;;;;;;;;4984375;28;20035;-82
2022/09/06 01:56:43;;;;;;;11.27;1.05;;;;;;;;;;5004990;28;20034;-80
2022/09/06 01:59:24;;;;;;;2.00;0.77;;;;;;;;;;4967254;28;20498;-80
2022/09/06 02:02:01;;;;;;;2.70;0.93;;;;;;;;;;4973496;28;20041;-80
2022/09/06 02:04:40;;;;;;;4.95;0.95;;;;;;;;;;5002007;28;20073;-81
2022/09/06 02:07:25;;;;;;;2.40;0.73;;;;;;;;;;4961711;28;20046;-81
2022/09/06 02:09:59;;;;;;;1.80;0.60;;;;;;;;;;4942857;28;20040;-79
2022/09/06 02:12:27;;;;;;;2.50;0.90;;;;;;;;;;4944702;28;20062;-80
2022/09/06 02:15:05;;;;;;;2.35;0.68;;;;;;;;;;4953719;28;20395;-81
2022/09/06 02:17:33;;;;;;;3.70;0.63;;;;;;;;;;4972842;28;20499;-80
2022/09/06 02:20:28;;;;;;;;;;;;;;;;;;4988745;28;20397;-81
2022/09/06 02:22:55;;;;;;;3.05;0.85;;;;;;;;;;4964361;28;19929;-80
2022/09/06 02:25:25;;;;;;;1.80;0.60;;;;;;;;;;4973612;28;20040;-82
2022/09/06 02:27:51;;;;;;;4.47;0.80;;;;;;;;;;4992420;28;20031;-79
2022/09/06 02:30:16;;;;;;;2.15;0.80;;;;;;;;;;4960198;28;20042;-81
2022/09/06 02:32:57;;;;;;;1.67;0.68;;;;;;;;;;4993265;28;20557;-80
2022/09/06 02:35:23;;;;;;;1.77;0.70;;;;;;;;;;4972240;28;20039;-81
2022/09/06 02:37:48;;;;;;;1.63;0.60;;;;;;;;;;4990599;28;20034;-83
2022/09/06 02:40:14;;;;;;;2.17;0.75;;;;;;;;;;4998346;28;20038;-80
2022/09/06 02:42:40;;;;;;;2.25;0.75;;;;;;;;;;4960478;28;20493;-81
2022/09/06 02:45:06;;;;;;;3.70;0.70;;;;;;;;;;4959925;28;20027;-82
2022/09/06 02:47:32;;;;;;;2.00;0.73;;;;;;;;;;4956880;28;20035;-82
2022/09/06 02:49:57;;;;;;;2.75;0.80;;;;;;;;;;4958142;28;20026;-81
2022/09/06 02:52:22;;;;;;;2.33;0.60;;;;;;;;;;4971100;28;20031;-82
2022/09/06 02:54:47;;;;;;;2.60;0.88;;;;;;;;;;4991747;28;20106;-81
2022/09/06 02:57:13;;;;;;;3.53;0.90;;;;;;;;;;4990347;28;20042;-81
2022/09/06 02:59:38;;;;;;;2.50;0.85;;;;;;;;;;4966342;28;20121;-81
2022/09/06 03:02:03;;;;;;;1.83;0.70;;;;;;;;;;4991768;28;20409;-81
2022/09/06 03:04:32;;;;;;;3.13;1.10;;;;;;;;;;4985521;28;20042;-81
2022/09/06 03:06:58;;;;;;;2.40;0.70;;;;;;;;;;4959476;28;20499;-81
2022/09/06 03:09:24;;;;;;;3.95;0.90;;;;;;;;;;4990829;28;20048;-80
2022/09/06 03:11:49;;;;;;;3.50;1.05;;;;;;;;;;4947152;28;20041;-82
2022/09/06 03:14:15;;;;;;;3.53;0.80;;;;;;;;;;4969967;28;20038;-81
2022/09/06 03:16:41;;;;;;;3.47;0.90;;;;;;;;;;4991398;28;20038;-79
2022/09/06 03:19:06;;;;;;;2.95;0.90;;;;;;;;;;4975442;28;20042;-80
2022/09/06 03:21:32;;;;;;;2.55;0.90;;;;;;;;;;4993176;28;20501;-80
2022/09/06 03:23:58;;;;;;;3.30;0.73;;;;;;;;;;4993149;28;20089;-79
2022/09/06 03:26:23;;;;;;;3.47;0.90;;;;;;;;;;4995205;28;20054;-81
2022/09/06 03:28:49;;;;;;;3.22;1.00;;;;;;;;;;4974112;28;20137;-80
2022/09/06 03:31:14;;;;;;;3.10;0.80;;;;;;;;;;4969644;28;20454;-81
2022/09/06 03:33:40;;;;;;;2.33;1.00;;;;;;;;;;4959868;28;20066;-81
2022/09/06 03:36:05;;;;;;;3.30;0.80;;;;;;;;;;4975214;28;20490;-80
2022/09/06 03:38:30;;;;;;;4.80;0.98;;;;;;;;;;4956526;28;20491;-80
2022/09/06 03:40:56;;;;;;;1.75;0.63;;;;;;;;;;4994657;28;20069;-82
2022/09/06 03:43:22;;;;;;;2.80;0.80;;;;;;;;;;4992143;28;20032;-81
2022/09/06 03:45:51;;;;;;;3.35;0.75;;;;;;;;;;4946871;28;20486;-80
2022/09/06 03:48:17;;;;;;;2.35;0.82;;;;;;;;;;4990045;28;20038;-82
2022/09/06 03:50:47;;;;;;;3.28;0.85;;;;;;;;;;4969482;28;20133;-81
2022/09/06 03:53:13;;;;;;;3.10;0.95;;;;;;;;;;4988198;28;20028;-81
2022/09/06 03:55:39;;;;;;;2.30;0.80;;;;;;;;;;4960931;28;20023;-82
2022/09/06 03:58:04;;;;;;;2.90;1.55;;;;;;;;;;4960118;28;20494;-80
2022/09/06 04:00:32;;;;;;;3.83;1.00;;;;;;;;;;5005963;28;20039;-83
2022/09/06 04:02:57;;;;;;;3.63;0.82;;;;;;;;;;4973373;28;20394;-84
2022/09/06 04:05:23;;;;;;;2.80;0.90;;;;;;;;;;4990165;28;20038;-81
2022/09/06 04:07:48;;;;;;;3.50;1.52;;;;;;;;;;4992996;28;20056;-81
2022/09/06 04:10:14;;;;;;;3.97;0.80;;;;;;;;;;4998569;28;20035;-80
2022/09/06 04:12:39;;;;;;;3.33;0.90;;;;;;;;;;4995917;28;20098;-82
2022/09/06 04:15:05;;;;;;;3.80;0.82;;;;;;;;;;4991750;28;20038;-82
2022/09/06 04:17:31;;;;;;;3.85;0.90;;;;;;;;;;4979436;28;20494;-81
2022/09/06 04:19:56;;;;;;;4.03;1.27;;;;;;;;;;4990414;28;20110;-84
2022/09/06 04:22:21;;;;;;;3.03;1.02;;;;;;;;;;4987550;28;20030;-82
2022/09/06 04:24:48;;;;;;;8.30;1.00;;;;;;;;;;4959740;28;20452;-81
2022/09/06 04:27:16;;;;;;;2.95;0.85;;;;;;;;;;4965233;28;20049;-82
2022/09/06 04:29:41;;;;;;;4.30;1.00;;;;;;;;;;4958958;28;20054;-81
2022/09/06 04:32:08;;;;;;;2.58;0.88;;;;;;;;;;4968081;28;20045;-81
2022/09/06 04:34:34;;;;;;;2.58;1.10;;;;;;;;;;4954712;28;20513;-83
2022/09/06 04:36:59;;;;;;;2.88;1.00;;;;;;;;;;4955306;28;20034;-81
2022/09/06 04:39:24;;;;;;;3.63;1.02;;;;;;;;;;4974966;28;20070;-81
2022/09/06 04:41:50;;;;;;;3.35;0.93;;;;;;;;;;4975399;28;20470;-82
2022/09/06 04:44:15;;;;;;;2.80;1.10;;;;;;;;;;4958507;28;20529;-84
2022/09/06 04:46:41;;;;;;;2.70;1.10;;;;;;;;;;4992171;28;20034;-83
2022/09/06 04:49:06;;;;;;;3.58;1.45;;;;;;;;;;5004079;28;20045;-83
2022/09/06 04:51:31;;;;;;;3.92;1.02;;;;;;;;;;4984261;28;20371;-81
2022/09/06 04:53:57;;;;;;;6.78;1.05;;;;;;;;;;4990812;28;20026;-81
2022/09/06 04:56:24;;;;;;;3.92;1.20;;;;;;;;;;4985078;28;20042;-82
2022/09/06 04:58:50;;;;;;;3.33;1.10;;;;;;;;;;4946022;28;20414;-82
2022/09/06 05:01:16;;;;;;;2.63;1.00;;;;;;;;;;4958072;28;20031;-80
2022/09/06 05:03:41;;;;;;;3.25;1.00;;;;;;;;;;4969923;28;20089;-79
2022/09/06 05:06:18;;;;;;;2.75;1.08;;;;;;;;;;5000041;28;20070;-80
2022/09/06 05:08:43;;;;;;;4.83;0.90;;;;;;;;;;5001009;28;20034;-78
2022/09/06 05:11:09;;;;;;;5.50;1.90;;;;;;;;;;4957932;28;20498;-78
2022/09/06 05:13:35;;;;;;;3.88;1.20;;;;;;;;;;4929860;28;20039;-77
2022/09/06 05:16:02;;;;;;;5.20;0.90;;;;;;;;;;4987890;28;20398;-78
2022/09/06 05:18:27;;;;;;;3.40;1.08;;;;;;;;;;4972361;28;20042;-79
2022/09/06 05:20:53;;;;;;;3.28;1.00;;;;;;;;;;4953955;28;20494;-78
2022/09/06 05:23:21;;;;;;;2.72;1.08;;;;;;;;;;4953014;28;20118;-79
2022/09/06 05:25:47;;;;;;;2.45;1.13;;;;;;;;;;4940183;28;20039;-78
2022/09/06 05:28:14;;;;;;;3.83;1.10;;;;;;;;;;4976339;28;20039;-78
2022/09/06 05:30:40;;;;;;;3.38;1.00;;;;;;;;;;4957248;28;20038;-78
2022/09/06 05:33:09;;;;;;;4.68;1.10;;;;;;;;;;4985271;28;20087;-78
2022/09/06 05:35:34;;;;;;;4.22;1.20;;;;;;;;;;4957671;28;20611;-79
2022/09/06 05:38:00;;;;;;;7.95;1.00;;;;;;;;;;4960177;28;20041;-78
2022/09/06 05:40:25;;;;;;;3.97;1.00;;;;;;;;;;4953131;28;20477;-80
2022/09/06 05:42:52;;;;;;;2.92;1.02;;;;;;;;;;4973737;28;20068;-79
2022/09/06 05:45:17;;;;;;;4.22;0.98;;;;;;;;;;4955865;28;20141;-77
2022/09/06 05:47:43;;;;;;;2.63;1.10;;;;;;;;;;4987575;28;20042;-78
2022/09/06 05:50:09;;;;;;;2.78;1.10;;;;;;;;;;4979809;28;20080;-84
2022/09/06 05:52:35;;;;;;;9.48;3.90;;;;;;;;;;4969040;28;20483;-82
2022/09/06 05:55:01;;;;;;;3.75;1.58;;;;;;;;;;4971437;28;20494;-83
2022/09/06 05:57:26;;;;;;;2.90;0.90;;;;;;;;;;5005761;28;20566;-83
2022/09/06 05:59:54;;;;;;;3.15;1.00;;;;;;;;;;4954272;28;20030;-83
2022/09/06 06:02:21;;;;;;;2.88;1.08;;;;;;;;;;4976621;28;20045;-83
2022/09/06 06:04:47;;;;;;;3.03;0.97;;;;;;;;;;4978743;28;20466;-82
2022/09/06 06:07:15;;;;;;;3.00;1.08;;;;;;;;;;4956686;28;20445;-83
2022/09/06 06:09:40;;;;;;;3.23;1.10;;;;;;;;;;4971284;28;20116;-81
2022/09/06 06:12:06;;;;;;;3.53;1.00;;;;;;;;;;5007821;28;20042;-84
2022/09/06 06:14:33;;;;;;;3.45;0.93;;;;;;;;;;4986070;28;20491;-82
2022/09/06 06:16:59;;;;;;;2.65;1.10;;;;;;;;;;4953926;28;20057;-84
2022/09/06 06:19:25;;;;;;;3.35;1.00;;;;;;;;;;4944660;28;20448;-83
2022/09/06 06:21:51;;;;;;;3.22;0.90;;;;;;;;;;4970311;28;20047;-82
2022/09/06 06:24:17;;;;;;;4.45;1.30;;;;;;;;;;4949132;28;20049;-83
2022/09/06 06:26:42;;;;;;;3.50;1.48;;;;;;;;;;4971449;28;20043;-80
2022/09/06 06:29:08;;;;;;;5.25;1.20;;;;;;;;;;4978804;28;20548;-81
2022/09/06 06:31:35;;;;;;;2.38;0.80;;;;;;;;;;4959313;28;20035;-80
2022/09/06 06:34:03;;;;;;;3.97;1.27;;;;;;;;;;4997290;28;20070;-82
2022/09/06 06:36:32;;;;;;;3.97;1.20;;;;;;;;;;4956401;28;20077;-82
2022/09/06 06:38:59;;;;;;;3.63;0.90;;;;;;;;;;4952922;28;20542;-82
2022/09/06 06:41:28;;;;;;;3.20;1.00;;;;;;;;;;4959987;28;20499;-80
2022/09/06 06:43:55;;;;;;;2.85;1.30;;;;;;;;;;4961583;28;20038;-81
2022/09/06 06:46:23;;;;;;;2.88;0.93;;;;;;;;;;4986513;28;20043;-81
2022/09/06 06:48:48;;;;;;;3.22;0.95;;;;;;;;;;4973528;28;20054;-82
2022/09/06 06:51:16;;;;;;;2.47;0.90;;;;;;;;;;4951952;28;20046;-82
2022/09/06 06:53:48;;;;;;;2.83;1.20;;;;;;;;;;4968398;28;20499;-82
2022/09/06 06:56:27;;;;;;;4.40;1.00;;;;;;;;;;4985078;28;20062;-81
2022/09/06 06:58:56;;;;;;;5.60;1.30;;;;;;;;;;4994799;28;20035;-83
2022/09/06 07:01:21;;;;;;;2.30;1.10;;;;;;;;;;4989029;28;20085;-82
2022/09/06 07:03:51;;;;;;;6.65;2.80;;;;;;;;;;4990621;28;20042;-82
2022/09/06 07:06:18;;;;;;;2.90;1.10;;;;;;;;;;4973578;28;20038;-83
2022/09/06 07:08:46;;;;;;;2.80;1.17;;;;;;;;;;4979676;28;20043;-81
2022/09/06 07:11:14;;;;;;;6.97;1.08;;;;;;;;;;4955944;28;20124;-81
2022/09/06 07:13:40;;;;;;;4.55;1.00;;;;;;;;;;4977767;28;20066;-81
2022/09/06 07:16:18;;;;;;;3.10;1.05;;;;;;;;;;4973021;28;20031;-82
2022/09/06 07:18:44;;;;;;;3.88;1.33;;;;;;;;;;4945576;28;20039;-81
2022/09/06 07:21:16;;;;;;;5.13;1.30;;;;;;;;;;5000344;28;20045;-81
2022/09/06 07:23:43;;;;;;;3.03;1.10;;;;;;;;;;4990768;28;20110;-81
2022/09/06 07:26:15;;;;;;;3.92;1.10;;;;;;;;;;4964947;28;20054;-81
2022/09/06 07:28:41;;;;;;;5.30;1.52;;;;;;;;;;4974660;28;20035;-82
2022/09/06 07:31:07;;;;;;;3.85;1.10;;;;;;;;;;4957505;28;20041;-80
2022/09/06 07:33:34;;;;;;;4.70;1.30;;;;;;;;;;4979060;28;20522;-83
2022/09/06 07:36:01;;;;;;;2.97;1.20;;;;;;;;;;4974808;28;20041;-83
2022/09/06 07:38:28;;;;;;;4.57;1.40;;;;;;;;;;4973632;28;20039;-83
2022/09/06 07:41:09;;;;;;;4.80;1.50;;;;;;;;;;4965617;28;20045;-83
2022/09/06 07:43:35;;;;;;;7.90;1.77;;;;;;;;;;4960055;28;20033;-83
2022/09/06 07:46:07;;;;;;;8.75;1.80;;;;;;;;;;4983077;28;20096;-83
2022/09/06 07:48:37;;;;;;;6.47;1.60;;;;;;;;;;4969526;28;20121;-83
2022/09/06 07:51:17;;;;;;;3.50;1.83;;;;;;;;;;4996048;28;20030;-83
2022/09/06 07:53:45;;;;;;;10.82;4.30;;;;;;;;;;4977565;28;20164;-83
2022/09/06 07:56:12;;;;;;;8.93;4.35;;;;;;;;;;5008894;28;20450;-81
2022/09/06 07:58:39;;;;;;;11.98;5.63;;;;;;;;;;4997646;28;20030;-81
2022/09/06 08:01:14;;;;;;;16.35;5.57;;;;;;;;;;4944645;28;20034;-82
2022/09/06 08:03:39;;;;;;;10.25;3.95;;;;;;;;;;5005394;28;20042;-83
2022/09/06 08:06:05;;;;;;;13.70;3.50;;;;;;;;;;4962043;28;20153;-82
2022/09/06 08:08:30;;;;;;;7.35;3.60;;;;;;;;;;4992485;28;20041;-82
2022/09/06 08:10:57;;;;;;;9.45;3.63;;;;;;;;;;4990190;28;20043;-81
2022/09/06 08:13:22;;;;;;;5.43;2.55;;;;;;;;;;4957116;28;20030;-81
2022/09/06 08:15:47;;;;;;;12.65;5.43;;;;;;;;;;4961244;28;20550;-82
2022/09/06 08:18:13;;;;;;;11.77;4.90;;;;;;;;;;4985832;28;20425;-83
2022/09/06 08:20:38;;;;;;;12.05;4.18;;;;;;;;;;4983728;28;20144;-82
2022/09/06 08:23:10;;;;;;;8.95;3.47;;;;;;;;;;4986802;28;20437;-84
2022/09/06 08:25:35;;;;;;;4.95;2.28;;;;;;;;;;4988496;28;20034;-81
2022/09/06 08:28:00;;;;;;;4.50;2.10;;;;;;;;;;4989904;28;20089;-84
2022/09/06 08:30:28;;;;;;;4.00;1.75;;;;;;;;;;4992731;28;20042;-81
2022/09/06 08:32:55;;;;;;;3.55;1.90;;;;;;;;;;4958028;28;20034;-81
2022/09/06 08:35:21;;;;;;;5.85;1.80;;;;;;;;;;4986433;28;20044;-81
2022/09/06 08:37:46;;;;;;;6.95;1.67;;;;;;;;;;4953220;28;20035;-81
2022/09/06 08:40:14;;;;;;;5.45;1.65;;;;;;;;;;4938724;28;20406;-82
2022/09/06 08:42:39;;;;;;;2.97;1.50;;;;;;;;;;4967704;28;20070;-81
2022/09/06 08:45:18;;;;;;;3.80;1.40;;;;;;;;;;4990857;28;20031;-81
2022/09/06 08:47:44;;;;;;;4.35;1.50;;;;;;;;;;4971284;28;20039;-83
2022/09/06 08:50:10;;;;;;;4.95;1.67;;;;;;;;;;4995553;28;20497;-82
2022/09/06 08:52:54;;;;;;;3.20;1.30;;;;;;;;;;5011047;28;20509;-82
2022/09/06 08:55:38;;;;;;;4.55;1.75;;;;;;;;;;4971630;28;20100;-82
2022/09/06 08:58:22;;;;;;;4.05;1.75;;;;;;;;;;4961128;28;20035;-82
2022/09/06 09:00:51;;;;;;;4.68;1.60;;;;;;;;;;4987546;28;20047;-79
2022/09/06 09:03:24;;;;;;;5.78;1.95;;;;;;;;;;4983736;28;20520;-81
2022/09/06 09:05:52;;;;;;;3.97;1.45;;;;;;;;;;4972172;28;20117;-82
2022/09/06 09:08:26;;;;;;;4.43;1.60;;;;;;;;;;4985816;28;20154;-83
2022/09/06 09:11:05;;;;;;;4.45;1.60;;;;;;;;;;4969018;28;20486;-81
2022/09/06 09:13:46;;;;;;;3.92;1.75;;;;;;;;;;4974866;28;20030;-81
2022/09/06 09:16:15;;;;;;;4.85;1.60;;;;;;;;;;5004563;28;20469;-82
2022/09/06 09:18:46;;;;;;;4.95;1.75;;;;;;;;;;4955290;28;20042;-82
2022/09/06 09:21:11;;;;;;;10.80;5.63;;;;;;;;;;4946317;28;20023;-82
2022/09/06 09:23:36;;;;;;;4.38;1.80;;;;;;;;;;4986891;28;20038;-80
2022/09/06 09:26:05;;;;;;;4.47;1.58;;;;;;;;;;4961778;28;20061;-80
2022/09/06 09:28:30;;;;;;;4.38;1.60;;;;;;;;;;4950136;28;20578;-80
2022/09/06 09:30:56;;;;;;;3.75;1.48;;;;;;;;;;4954159;28;20039;-79
2022/09/06 09:33:38;;;;;;;4.10;1.50;;;;;;;;;;4954835;28;20045;-80
2022/09/06 09:36:21;;;;;;;5.25;1.70;;;;;;;;;;4954277;28;20034;-80
2022/09/06 09:38:51;;;;;;;6.82;1.63;;;;;;;;;;4988237;28;20045;-78
2022/09/06 09:41:29;;;;;;;4.18;1.67;;;;;;;;;;4953777;28;20093;-79
2022/09/06 09:44:02;;;;;;;5.40;1.70;;;;;;;;;;4954095;28;20390;-81
2022/09/06 09:46:35;;;;;;;3.63;1.63;;;;;;;;;;4981986;28;20039;-78
2022/09/06 09:49:24;;;;;;;5.82;2.03;;;;;;;;;;4936902;28;20070;-79
2022/09/06 09:52:09;;;;;;;4.13;1.80;;;;;;;;;;4963992;28;20039;-78
2022/09/06 09:54:36;;;;;;;4.50;1.83;;;;;;;;;;4959562;28;20034;-81
2022/09/06 09:57:07;;;;;;;7.63;1.80;;;;;;;;;;4992358;28;20047;-82
2022/09/06 09:59:35;;;;;;;5.30;1.83;;;;;;;;;;4993541;28;20035;-80
2022/09/06 10:02:14;;;;;;;4.18;1.73;;;;;;;;;;4988156;28;20042;-81
2022/09/06 10:04:51;;;;;;;5.45;1.90;;;;;;;;;;4956268;28;20053;-79
2022/09/06 10:07:21;;;;;;;4.70;2.03;;;;;;;;;;4968843;28;20392;-81
2022/09/06 10:09:48;;;;;;;5.13;2.00;;;;;;;;;;4960828;28;20282;-80
2022/09/06 10:12:16;;;;;;;4.43;1.70;;;;;;;;;;4957139;28;20520;-81
2022/09/06 10:14:44;;;;;;;4.38;2.13;;;;;;;;;;4998943;28;20524;-82
2022/09/06 10:17:22;;;;;;;;;;;;;;;;;;4979963;28;20031;-82
2022/09/06 10:19:47;;;;;;;5.43;2.08;;;;;;;;;;4957318;28;19918;-80
2022/09/06 10:22:27;;;;;;;4.97;1.77;;;;;;;;;;4953492;28;20048;-80
2022/09/06 10:25:13;;;;;;;4.85;1.90;;;;;;;;;;4954896;28;20039;-82
2022/09/06 10:28:03;;;;;;;5.75;2.58;;;;;;;;;;4968348;28;20042;-81
2022/09/06 10:30:30;;;;;;;4.00;2.30;;;;;;;;;;4985568;28;20093;-82
2022/09/06 10:33:05;;;;;;;5.77;2.17;;;;;;;;;;4975324;28;20042;-83
2022/09/06 10:35:34;;;;;;;5.93;2.17;;;;;;;;;;4961235;28;20061;-82
2022/09/06 10:38:26;;;;;;;4.95;2.15;;;;;;;;;;4955383;28;20058;-82
2022/09/06 10:41:33;;;;;;;5.10;2.45;;;;;;;;;;4972825;28;20090;-82
2022/09/06 10:44:16;;;;;;;;;;;;;;;;;;4965496;28;20094;-83
2022/09/06 10:46:44;;;;;;;5.07;2.50;;;;;;;;;;5006870;28;19928;-84
2022/09/06 10:49:10;;;;;;;;;;;;;;;;;;4994868;28;20046;-81
2022/09/06 10:51:40;;;;;;;5.55;2.40;;;;;;;;;;4974078;28;20424;-83
2022/09/06 10:54:11;;;;;;;5.85;2.30;;;;;;;;;;4947128;28;20039;-83
2022/09/06 10:56:45;;;;;;;5.82;2.15;;;;;;;;;;4979167;28;20712;-85
2022/09/06 10:59:32;;;;;;;4.93;2.10;;;;;;;;;;4952580;28;20139;-83
2022/09/06 11:02:06;;;;;;;;;;;;;;;;;;4956400;28;20154;-83
2022/09/06 11:04:40;;;;;;;5.47;2.20;;;;;;;;;;4973278;28;19978;-83
2022/09/06 11:07:17;;;;;;;6.15;2.25;;;;;;;;;;4957596;28;20494;-82
2022/09/06 11:09:49;;;;;;;4.88;2.05;;;;;;;;;;4959860;28;20592;-82
2022/09/06 11:12:14;;;;;;;4.50;2.00;;;;;;;;;;4959534;28;20034;-81
2022/09/06 11:14:40;;;;;;;6.00;2.00;;;;;;;;;;4986219;28;20494;-83
2022/09/06 11:17:13;;;;;;;5.50;2.00;;;;;;;;;;4955739;28;20038;-83
2022/09/06 11:19:51;;;;;;;7.20;2.20;;;;;;;;;;4970782;28;20526;-83
2022/09/06 11:22:16;;;;;;;4.40;1.80;;;;;;;;;;4959908;28;20389;-84
2022/09/06 11:24:44;;;;;;;3.63;1.87;;;;;;;;;;4955252;28;20043;-82
2022/09/06 11:27:39;;;;;;;6.25;2.40;;;;;;;;;;4953041;28;20771;-80
2022/09/06 11:30:05;;;;;;;4.15;2.30;;;;;;;;;;4939743;28;20043;-83
2022/09/06 11:32:39;;;;;;;6.67;2.20;;;;;;;;;;4990703;28;20030;-83
2022/09/06 11:35:08;;;;;;;7.72;2.00;;;;;;;;;;5004093;28;20490;-83
2022/09/06 11:37:41;;;;;;;6.63;2.20;;;;;;;;;;4991900;28;20114;-81
2022/09/06 11:40:15;;;;;;;6.55;2.05;;;;;;;;;;4956551;28;20057;-82
2022/09/06 11:42:43;;;;;;;4.50;2.28;;;;;;;;;;4971919;28;20046;-80
2022/09/06 11:45:08;;;;;;;5.00;2.38;;;;;;;;;;4969401;28;20086;-83
2022/09/06 11:47:40;;;;;;;5.43;2.40;;;;;;;;;;4976508;28;20050;-82
2022/09/06 11:50:25;;;;;;;7.10;2.65;;;;;;;;;;5004542;28;20274;-83
2022/09/06 11:53:05;;;;;;;5.22;2.22;;;;;;;;;;4973795;28;20042;-82
2022/09/06 11:55:39;;;;;;;7.03;2.10;;;;;;;;;;5002740;28;20043;-82
2022/09/06 11:58:11;;;;;;;5.38;2.50;;;;;;;;;;4975361;28;20051;-84
2022/09/06 12:00:36;;;;;;;5.22;2.28;;;;;;;;;;4948382;28;20105;-81
2022/09/06 12:03:06;;;;;;;5.13;2.47;;;;;;;;;;5003784;28;20134;-83
2022/09/06 12:05:32;;;;;;;6.90;2.58;;;;;;;;;;4966061;28;20325;-83
2022/09/06 12:08:24;;;;;;;5.20;2.35;;;;;;;;;;4994119;28;20856;-81
2022/09/06 12:10:55;;;;;;;4.95;2.25;;;;;;;;;;4987506;28;20061;-81
2022/09/06 12:13:45;;;;;;;5.90;2.47;;;;;;;;;;4972829;28;20446;-83
2022/09/06 12:16:12;;;;;;;4.50;2.30;;;;;;;;;;4972695;28;20031;-82
2022/09/06 12:18:46;;;;;;;4.77;2.43;;;;;;;;;;4992246;28;20122;-83
2022/09/06 12:21:31;;;;;;;4.70;2.30;;;;;;;;;;4990525;28;20498;-83
2022/09/06 12:23:57;;;;;;;3.70;2.22;;;;;;;;;;4952677;28;20191;-84
2022/09/06 12:26:49;;;;;;;6.72;2.80;;;;;;;;;;4988300;28;20038;-84
2022/09/06 12:29:16;;;;;;;4.18;2.20;;;;;;;;;;4990341;28;20065;-84
2022/09/06 12:31:43;;;;;;;4.72;2.40;;;;;;;;;;4944688;28;20117;-83
2022/09/06 12:34:12;;;;;;;6.05;2.42;;;;;;;;;;4983448;28;20038;-83
2022/09/06 12:36:48;;;;;;;4.70;2.65;;;;;;;;;;4965222;28;20073;-82
2022/09/06 12:39:13;;;;;;;4.75;2.50;;;;;;;;;;4989727;28;20561;-82
2022/09/06 12:41:42;;;;;;;3.83;2.15;;;;;;;;;;4970738;28;20035;-82
2022/09/06 12:44:07;;;;;;;4.35;2.15;;;;;;;;;;4989295;28;20049;-84
2022/09/06 12:46:33;;;;;;;6.03;2.35;;;;;;;;;;5002213;28;20377;-84
2022/09/06 12:49:05;;;;;;;4.13;2.00;;;;;;;;;;4988668;28;20034;-82
2022/09/06 12:51:30;;;;;;;4.38;2.40;;;;;;;;;;5005761;28;20033;-85
2022/09/06 12:54:01;;;;;;;5.30;2.60;;;;;;;;;;4960527;28;20039;-85
2022/09/06 12:56:28;;;;;;;4.47;2.45;;;;;;;;;;4971637;28;20062;-84
2022/09/06 12:59:13;;;;;;;6.20;2.53;;;;;;;;;;4945307;28;20121;-84
2022/09/06 13:01:41;;;;;;;4.80;2.50;;;;;;;;;;4991226;28;20271;-84
2022/09/06 13:04:12;;;;;;;5.28;2.30;;;;;;;;;;4957218;28;20436;-84
2022/09/06 13:06:41;;;;;;;4.30;2.22;;;;;;;;;;4988014;28;20390;-84
2022/09/06 13:09:09;;;;;;;5.07;2.40;;;;;;;;;;4959758;28;20030;-83
2022/09/06 13:11:42;;;;;;;6.22;2.50;;;;;;;;;;4992605;28;20417;-83
2022/09/06 13:14:16;;;;;;;7.50;2.30;;;;;;;;;;4985704;28;20493;-84
2022/09/06 13:16:49;;;;;;;6.13;2.63;;;;;;;;;;4985962;28;20050;-83
2022/09/06 13:19:17;;;;;;;8.32;2.60;;;;;;;;;;4956779;28;20041;-84
2022/09/06 13:21:46;;;;;;;6.65;2.50;;;;;;;;;;4994678;28;20526;-85
2022/09/06 13:24:32;;;;;;;5.25;2.45;;;;;;;;;;4988745;28;20034;-84
2022/09/06 13:27:16;;;;;;;5.20;2.55;;;;;;;;;;4959241;28;20034;-84
2022/09/06 13:29:54;;;;;;;6.57;2.28;;;;;;;;;;4969574;28;20067;-84
2022/09/06 13:32:20;;;;;;;5.70;2.60;;;;;;;;;;4944371;28;20434;-84
2022/09/06 13:34:51;;;;;;;4.72;2.80;;;;;;;;;;4962468;28;20039;-83
2022/09/06 13:37:16;;;;;;;5.82;2.50;;;;;;;;;;4964001;28;20058;-85
2022/09/06 13:39:45;;;;;;;6.32;2.70;;;;;;;;;;4991879;28;20065;-82
2022/09/06 13:42:32;;;;;;;4.10;2.22;;;;;;;;;;4964594;28;20049;-83
2022/09/06 13:45:14;;;;;;;4.50;2.58;;;;;;;;;;4986921;28;20544;-83
2022/09/06 13:47:39;;;;;;;5.53;2.50;;;;;;;;;;4990881;28;20061;-83
2022/09/06 13:50:05;;;;;;;6.25;2.80;;;;;;;;;;4944940;28;20458;-83
2022/09/06 13:52:30;;;;;;;5.43;2.55;;;;;;;;;;4983462;28;20540;-83
2022/09/06 13:54:55;;;;;;;5.97;2.92;;;;;;;;;;4962915;28;20570;-82
2022/09/06 13:57:21;;;;;;;5.35;2.60;;;;;;;;;;4965720;28;20030;-82
2022/09/06 13:59:46;;;;;;;4.78;2.83;;;;;;;;;;4956436;28;20410;-85
2022/09/06 14:02:14;;;;;;;6.13;3.20;;;;;;;;;;4989596;28;20113;-83
2022/09/06 14:04:40;;;;;;;5.57;2.47;;;;;;;;;;4953517;28;20133;-82
2022/09/06 14:07:05;;;;;;;5.20;2.75;;;;;;;;;;5001503;28;20078;-80
2022/09/06 14:09:31;;;;;;;5.72;2.47;;;;;;;;;;4993114;28;20039;-82
2022/09/06 14:11:56;;;;;;;4.78;2.90;;;;;;;;;;4986213;28;20035;-83
2022/09/06 14:14:23;;;;;;;4.90;2.55;;;;;;;;;;4954959;28;20034;-83
2022/09/06 14:16:49;;;;;;;5.72;2.58;;;;;;;;;;4953576;28;20046;-83
2022/09/06 14:19:14;;;;;;;5.80;2.63;;;;;;;;;;4991228;28;20031;-83
2022/09/06 14:21:40;;;;;;;4.47;2.40;;;;;;;;;;4983969;28;20042;-84
2022/09/06 14:24:05;;;;;;;4.72;2.55;;;;;;;;;;4975570;28;20046;-82
2022/09/06 14:26:31;;;;;;;4.65;2.50;;;;;;;;;;4958666;28;20108;-82
2022/09/06 14:28:57;;;;;;;4.47;2.40;;;;;;;;;;4961754;28;20039;-84
2022/09/06 14:31:25;;;;;;;5.57;2.60;;;;;;;;;;4988925;28;20038;-83
2022/09/06 14:33:51;;;;;;;5.25;2.65;;;;;;;;;;4942046;28;20606;-83
2022/09/06 14:36:19;;;;;;;6.85;2.60;;;;;;;;;;4969030;28;20720;-83
2022/09/06 14:38:45;;;;;;;5.13;2.70;;;;;;;;;;4957106;28;20038;-82
2022/09/06 14:41:13;;;;;;;6.85;2.78;;;;;;;;;;4953009;28;20505;-81
2022/09/06 14:43:41;;;;;;;4.93;2.50;;;;;;;;;;4955974;28;20043;-83
2022/09/06 14:46:11;;;;;;;6.20;2.75;;;;;;;;;;4969131;28;20038;-85
2022/09/06 14:48:36;;;;;;;4.40;2.50;;;;;;;;;;4971046;28;20509;-85
2022/09/06 14:51:09;;;;;;;4.68;2.40;;;;;;;;;;4955378;28;20031;-83
2022/09/06 14:53:39;;;;;;;7.63;3.00;;;;;;;;;;4992069;28;20061;-85
2022/09/06 14:56:05;;;;;;;6.00;2.33;;;;;;;;;;4940393;28;20530;-84
2022/09/06 14:58:32;;;;;;;4.43;2.45;;;;;;;;;;4987407;28;20035;-88
2022/09/06 15:01:07;;;;;;;5.93;2.83;;;;;;;;;;4970807;28;20410;-84